Time;durP1;ratioP1;P1;durP2;ratioP2;P2;SDS_P1;SDS_P2;PMS_P1;PMS_P2;Temp;Humidity;BMP_temperature;BMP_pressure;BME280_temperature;BME280_humidity;BME280_pressure;Samples;Min_cycle;Max_cycle;Signal;HPM_P1;HPM_P2
2022/03/16 00:02:19;;;;;;;45.20;19.67;;;;;;;3.37;100.00;102141.75;5021138;28;20033;-80
2022/03/16 00:04:50;;;;;;;46.38;20.35;;;;;;;3.45;100.00;102142.41;5028496;28;20034;-80
2022/03/16 00:07:17;;;;;;;35.38;18.75;;;;;;;3.05;100.00;102142.63;5013522;28;20430;-79
2022/03/16 00:09:44;;;;;;;35.33;17.15;;;;;;;2.95;100.00;102136.56;5019079;28;20026;-81
2022/03/16 00:12:09;;;;;;;200.23;22.27;;;;;;;2.87;100.00;102127.78;5018649;28;20037;-79
2022/03/16 00:14:36;;;;;;;176.43;23.02;;;;;;;2.74;100.00;102132.63;5028337;28;20021;-80
2022/03/16 00:17:02;;;;;;;177.85;22.48;;;;;;;2.74;100.00;102140.75;5024042;28;20059;-80
2022/03/16 00:19:28;;;;;;;85.28;21.45;;;;;;;2.49;100.00;102116.13;5017912;28;20044;-80
2022/03/16 00:21:53;;;;;;;45.50;20.15;;;;;;;2.60;100.00;102132.97;5015701;28;20113;-80
2022/03/16 00:24:19;;;;;;;42.45;19.23;;;;;;;2.60;100.00;102123.97;5029522;28;20041;-80
2022/03/16 00:26:44;;;;;;;39.72;20.17;;;;;;;2.76;100.00;102125.38;5032389;28;20069;-80
2022/03/16 00:29:10;;;;;;;49.45;20.83;;;;;;;2.85;100.00;102122.41;4999170;28;20046;-80
2022/03/16 00:31:35;;;;;;;52.67;22.23;;;;;;;2.80;100.00;102115.34;5000199;28;20114;-80
2022/03/16 00:34:01;;;;;;;43.97;20.83;;;;;;;2.93;100.00;102139.31;5019119;28;20483;-80
2022/03/16 00:36:27;;;;;;;44.90;21.90;;;;;;;2.91;100.00;102130.38;5015983;28;20457;-81
2022/03/16 00:38:52;;;;;;;49.55;22.65;;;;;;;2.82;100.00;102118.91;5015317;28;20111;-81
2022/03/16 00:41:18;;;;;;;52.92;24.10;;;;;;;2.96;100.00;102138.38;5058316;27;20034;-79
2022/03/16 00:43:44;;;;;;;52.13;26.02;;;;;;;2.98;100.00;102138.31;5016079;28;20135;-81
2022/03/16 00:46:09;;;;;;;52.05;23.35;;;;;;;2.79;100.00;102133.41;5018857;28;20069;-81
2022/03/16 00:48:35;;;;;;;54.75;25.58;;;;;;;2.83;100.00;102126.09;5010428;28;20040;-82
2022/03/16 00:51:01;;;;;;;57.72;26.42;;;;;;;2.96;100.00;102126.66;5022558;28;20030;-82
2022/03/16 00:53:27;;;;;;;57.80;27.30;;;;;;;3.05;100.00;102134.50;5030161;28;20073;-81
2022/03/16 00:55:52;;;;;;;58.75;28.05;;;;;;;3.01;100.00;102135.53;5001997;28;20042;-81
2022/03/16 00:58:18;;;;;;;56.03;28.00;;;;;;;3.06;100.00;102126.34;5020903;28;20442;-81
2022/03/16 01:00:43;;;;;;;54.15;26.17;;;;;;;2.92;100.00;102123.16;5021492;28;20038;-81
2022/03/16 01:03:14;;;;;;;64.45;30.42;;;;;;;3.07;100.00;102125.44;5022820;28;20028;-81
2022/03/16 01:05:39;;;;;;;57.72;28.35;;;;;;;3.04;100.00;102114.69;5004175;28;20033;-81
2022/03/16 01:08:05;;;;;;;55.10;28.67;;;;;;;3.05;100.00;102116.47;5020217;28;20050;-81
2022/03/16 01:10:30;;;;;;;67.40;31.08;;;;;;;3.17;100.00;102128.78;5003141;28;20026;-82
2022/03/16 01:12:57;;;;;;;63.58;30.25;;;;;;;3.06;100.00;102112.81;5018919;28;20083;-81
2022/03/16 01:15:23;;;;;;;70.72;32.08;;;;;;;3.06;100.00;102118.22;5004142;28;20026;-82
2022/03/16 01:17:52;;;;;;;72.40;32.78;;;;;;;3.17;100.00;102117.06;5032243;28;20037;-82
2022/03/16 01:20:18;;;;;;;65.93;30.08;;;;;;;2.99;100.00;102115.75;5024875;27;20097;-82
2022/03/16 01:22:44;;;;;;;73.28;32.53;;;;;;;2.95;100.00;102109.53;5024621;28;20029;-82
2022/03/16 01:25:11;;;;;;;78.70;36.42;;;;;;;3.15;100.00;102122.53;5091743;28;20041;-81
2022/03/16 01:27:36;;;;;;;78.75;34.83;;;;;;;3.25;100.00;102120.47;5005592;28;20022;-82
2022/03/16 01:30:03;;;;;;;82.55;36.45;;;;;;;3.36;100.00;102122.84;5026883;28;20033;-82
2022/03/16 01:32:29;;;;;;;77.78;36.33;;;;;;;3.37;100.00;102114.69;5022899;28;20042;-81
2022/03/16 01:34:54;;;;;;;70.40;34.95;;;;;;;3.49;100.00;102116.13;5025937;28;20049;-81
2022/03/16 01:37:19;;;;;;;76.10;33.10;;;;;;;3.47;100.00;102113.47;5028360;28;20105;-81
2022/03/16 01:39:45;;;;;;;75.75;34.70;;;;;;;3.50;100.00;102113.38;5013350;28;20026;-82
2022/03/16 01:42:10;;;;;;;81.82;35.92;;;;;;;3.53;100.00;102101.59;5008843;28;20030;-82
2022/03/16 01:44:50;;;;;;;87.32;37.20;;;;;;;3.64;100.00;102109.38;5020066;28;20116;-82
2022/03/16 01:47:18;;;;;;;76.00;35.22;;;;;;;3.63;100.00;102110.34;5013004;28;20034;-82
2022/03/16 01:49:45;;;;;;;74.32;33.42;;;;;;;3.59;100.00;102109.53;5021450;28;20033;-82
2022/03/16 01:52:15;;;;;;;79.75;35.67;;;;;;;3.52;100.00;102104.34;5028714;28;20097;-82
2022/03/16 01:54:41;;;;;;;77.30;35.67;;;;;;;3.53;100.00;102103.41;5005203;28;20026;-82
2022/03/16 01:57:09;;;;;;;74.53;35.38;;;;;;;3.50;100.00;102112.50;5012275;28;20036;-82
2022/03/16 01:59:36;;;;;;;73.82;34.97;;;;;;;3.38;100.00;102097.50;5008962;28;20025;-81
2022/03/16 02:02:02;;;;;;;78.00;33.10;;;;;;;3.29;100.00;102093.22;5021914;28;20025;-81
2022/03/16 02:04:29;;;;;;;73.00;34.88;;;;;;;3.30;100.00;102086.91;5034806;28;20506;-82
2022/03/16 02:06:54;;;;;;;77.20;35.17;;;;;;;3.34;100.00;102086.81;5028447;28;20034;-82
2022/03/16 02:09:21;;;;;;;75.40;35.85;;;;;;;3.33;100.00;102076.91;5026511;28;20044;-82
2022/03/16 02:11:47;;;;;;;76.40;36.83;;;;;;;3.28;100.00;102077.94;5030999;28;20045;-81
2022/03/16 02:14:13;;;;;;;82.90;38.00;;;;;;;3.31;100.00;102087.78;5028969;28;20026;-82
2022/03/16 02:16:38;;;;;;;83.40;38.28;;;;;;;3.25;100.00;102078.03;5033101;28;20089;-82
2022/03/16 02:19:04;;;;;;;84.40;37.47;;;;;;;3.37;100.00;102073.19;5036547;28;20053;-82
2022/03/16 02:21:43;;;;;;;80.95;37.65;;;;;;;3.37;100.00;102081.31;5037792;28;20034;-82
2022/03/16 02:24:08;;;;;;;79.18;36.35;;;;;;;3.36;100.00;102068.69;5030831;28;20026;-81
2022/03/16 02:26:35;;;;;;;81.22;38.55;;;;;;;3.30;100.00;102067.97;5095551;27;20570;-81
2022/03/16 02:29:00;;;;;;;87.22;37.70;;;;;;;3.23;100.00;102051.94;5023925;28;20110;-81
2022/03/16 02:31:27;;;;;;;80.78;36.05;;;;;;;3.32;100.00;102054.38;5025946;28;20034;-81
2022/03/16 02:33:53;;;;;;;84.78;37.58;;;;;;;3.29;100.00;102051.75;5012100;28;20045;-81
2022/03/16 02:36:19;;;;;;;75.65;37.03;;;;;;;3.25;100.00;102058.22;5031403;28;20089;-82
2022/03/16 02:38:45;;;;;;;83.88;39.53;;;;;;;3.20;100.00;102068.25;5012553;28;20094;-81
2022/03/16 02:41:10;;;;;;;78.28;35.63;;;;;;;3.16;100.00;102056.63;5028186;28;20097;-81
2022/03/16 02:43:36;;;;;;;77.47;36.53;;;;;;;3.11;100.00;102061.28;5017536;28;20050;-80
2022/03/16 02:46:02;;;;;;;74.38;36.47;;;;;;;3.11;100.00;102070.28;5028395;28;20046;-82
2022/03/16 02:48:28;;;;;;;77.15;34.20;;;;;;;3.03;100.00;102053.38;5023797;28;20038;-82
2022/03/16 02:50:54;;;;;;;68.40;33.15;;;;;;;3.13;100.00;102064.84;5031652;28;20044;-82
2022/03/16 02:53:19;;;;;;;71.47;34.60;;;;;;;3.18;100.00;102064.72;5031874;28;20049;-81
2022/03/16 02:55:46;;;;;;;68.88;34.33;;;;;;;3.20;100.00;102065.53;5012817;28;20061;-81
2022/03/16 02:58:12;;;;;;;82.82;37.30;;;;;;;3.26;100.00;102059.97;5028881;28;20037;-82
2022/03/16 03:00:37;;;;;;;79.38;37.15;;;;;;;3.19;100.00;102061.97;5011557;28;20076;-81
2022/03/16 03:03:03;;;;;;;84.22;39.47;;;;;;;3.24;100.00;102054.59;5033806;28;20033;-81
2022/03/16 03:05:29;;;;;;;85.00;38.92;;;;;;;3.28;100.00;102064.41;5020875;28;20053;-82
2022/03/16 03:07:54;;;;;;;90.95;39.08;;;;;;;3.19;100.00;102059.25;5011328;28;20033;-82
2022/03/16 03:10:21;;;;;;;89.38;41.45;;;;;;;3.34;100.00;102059.75;5020244;28;20174;-82
2022/03/16 03:12:47;;;;;;;89.88;40.30;;;;;;;3.31;100.00;102052.59;5022519;28;20038;-82
2022/03/16 03:15:14;;;;;;;88.05;40.63;;;;;;;3.29;100.00;102044.50;5030830;28;20069;-82
2022/03/16 03:17:42;;;;;;;93.50;42.20;;;;;;;3.28;100.00;102061.72;5010980;28;20041;-82
2022/03/16 03:20:09;;;;;;;82.95;40.95;;;;;;;3.13;100.00;102063.03;5024855;28;20041;-82
2022/03/16 03:22:34;;;;;;;90.80;40.65;;;;;;;3.16;100.00;102061.16;5005065;28;20037;-82
2022/03/16 03:25:00;;;;;;;82.68;41.63;;;;;;;3.12;100.00;102057.66;5026451;28;20038;-81
2022/03/16 03:27:26;;;;;;;86.65;40.60;;;;;;;3.04;100.00;102067.81;5018823;28;20030;-81
2022/03/16 03:29:52;;;;;;;91.53;39.30;;;;;;;3.10;100.00;102068.53;5001958;28;20412;-82
2022/03/16 03:32:18;;;;;;;101.45;43.70;;;;;;;3.20;100.00;102065.53;5023056;28;20037;-82
2022/03/16 03:34:47;;;;;;;92.65;41.88;;;;;;;3.13;100.00;102060.34;5002018;28;20050;-82
2022/03/16 03:37:14;;;;;;;91.47;41.13;;;;;;;3.07;100.00;102065.03;5019888;28;20044;-82
2022/03/16 03:39:41;;;;;;;91.03;43.58;;;;;;;3.17;100.00;102069.25;5003752;28;20034;-82
2022/03/16 03:42:07;;;;;;;95.03;41.58;;;;;;;3.06;100.00;102074.94;5017372;28;20094;-82
2022/03/16 03:44:32;;;;;;;90.30;41.97;;;;;;;3.12;100.00;102080.19;5027987;28;20038;-81
2022/03/16 03:46:58;;;;;;;97.50;44.63;;;;;;;3.07;100.00;102071.31;5024328;28;20040;-81
2022/03/16 03:49:23;;;;;;;82.22;40.65;;;;;;;3.09;100.00;102074.00;5027330;28;20041;-82
2022/03/16 03:51:49;;;;;;;90.70;41.30;;;;;;;3.08;100.00;102070.41;5002508;28;20045;-82
2022/03/16 03:54:14;;;;;;;88.70;39.85;;;;;;;3.15;100.00;102076.53;5023433;28;20034;-82
2022/03/16 03:56:40;;;;;;;91.82;41.55;;;;;;;3.13;100.00;102067.53;5020508;28;20113;-82
2022/03/16 03:59:05;;;;;;;92.70;42.45;;;;;;;3.07;100.00;102063.22;5025802;28;20036;-82
2022/03/16 04:01:31;;;;;;;95.53;42.95;;;;;;;3.11;100.00;102074.81;5023406;28;20027;-82
2022/03/16 04:03:56;;;;;;;89.13;42.05;;;;;;;3.11;100.00;102073.00;5028696;28;20072;-82
2022/03/16 04:06:22;;;;;;;91.35;42.13;;;;;;;3.04;100.00;102070.53;5031800;28;20037;-81
2022/03/16 04:08:47;;;;;;;107.70;45.67;;;;;;;3.13;100.00;102075.66;5002767;28;20080;-81
2022/03/16 04:11:13;;;;;;;93.43;41.63;;;;;;;3.10;100.00;102070.38;5021872;28;20112;-81
2022/03/16 04:13:42;;;;;;;94.18;42.95;;;;;;;3.07;100.00;102068.63;5016689;28;20044;-81
2022/03/16 04:16:07;;;;;;;91.38;43.53;;;;;;;3.07;100.00;102075.84;5021262;28;20033;-81
2022/03/16 04:18:32;;;;;;;95.95;43.75;;;;;;;2.98;100.00;102071.56;5025680;28;20033;-81
2022/03/16 04:20:58;;;;;;;91.80;41.45;;;;;;;2.98;100.00;102066.16;5018897;28;20030;-81
2022/03/16 04:23:24;;;;;;;98.60;44.33;;;;;;;2.87;100.00;102063.78;4999216;28;20026;-82
2022/03/16 04:25:49;;;;;;;97.88;42.22;;;;;;;2.91;100.00;102075.38;5026528;28;20062;-81
2022/03/16 04:28:15;;;;;;;100.43;41.67;;;;;;;2.92;100.00;102077.16;5011388;28;20686;-82
2022/03/16 04:30:40;;;;;;;98.68;43.25;;;;;;;2.87;100.00;102076.38;5016530;28;20543;-81
2022/03/16 04:33:05;;;;;;;90.93;41.40;;;;;;;2.84;100.00;102073.78;5035223;28;20042;-81
2022/03/16 04:35:31;;;;;;;101.45;43.88;;;;;;;2.72;100.00;102058.75;5019046;28;20056;-81
2022/03/16 04:37:56;;;;;;;97.03;42.97;;;;;;;2.70;100.00;102056.09;5021793;28;20102;-80
2022/03/16 04:40:22;;;;;;;95.40;43.50;;;;;;;2.78;100.00;102069.41;5027420;28;20055;-81
2022/03/16 04:42:47;;;;;;;101.45;44.53;;;;;;;2.71;100.00;102057.88;5002103;28;20108;-82
2022/03/16 04:45:13;;;;;;;109.90;44.80;;;;;;;2.75;100.00;102058.69;5007679;28;20074;-81
2022/03/16 04:47:39;;;;;;;98.60;43.40;;;;;;;2.83;100.00;102061.19;5016009;28;20042;-81
2022/03/16 04:50:05;;;;;;;107.22;44.10;;;;;;;2.82;100.00;102049.50;5027915;28;20073;-81
2022/03/16 04:52:32;;;;;;;103.97;42.88;;;;;;;2.86;100.00;102055.69;5022775;28;20037;-81
2022/03/16 04:54:58;;;;;;;101.18;41.58;;;;;;;2.95;100.00;102068.94;5021773;28;20033;-81
2022/03/16 04:57:23;;;;;;;97.53;41.88;;;;;;;2.93;100.00;102057.28;5021594;28;20036;-81
2022/03/16 04:59:49;;;;;;;101.72;41.97;;;;;;;2.99;100.00;102067.06;5015920;28;20129;-81
2022/03/16 05:02:14;;;;;;;98.45;42.25;;;;;;;3.09;100.00;102057.75;5023171;28;20034;-82
2022/03/16 05:04:40;;;;;;;96.88;39.22;;;;;;;3.15;100.00;102054.88;5000758;28;20030;-82
2022/03/16 05:07:05;;;;;;;98.55;40.65;;;;;;;3.21;100.00;102042.97;5023013;28;20025;-82
2022/03/16 05:09:31;;;;;;;87.95;37.47;;;;;;;3.24;100.00;102053.72;5088949;28;20037;-81
2022/03/16 05:11:56;;;;;;;89.07;37.42;;;;;;;3.12;100.00;102030.63;5006750;28;20471;-81
2022/03/16 05:14:21;;;;;;;83.65;34.90;;;;;;;3.27;100.00;102049.09;5016101;28;20464;-80
2022/03/16 05:16:47;;;;;;;85.05;35.08;;;;;;;3.31;100.00;102058.00;5023579;28;20034;-81
2022/03/16 05:19:13;;;;;;;75.10;33.42;;;;;;;3.27;100.00;102056.34;5022638;28;20028;-82
2022/03/16 05:21:38;;;;;;;83.53;34.53;;;;;;;3.31;100.00;102058.91;5004340;28;20029;-82
2022/03/16 05:24:04;;;;;;;68.97;32.60;;;;;;;3.37;100.00;102054.25;5025139;28;20500;-82
2022/03/16 05:26:30;;;;;;;73.25;32.97;;;;;;;3.35;100.00;102059.69;5017949;28;20511;-81
2022/03/16 05:28:56;;;;;;;75.95;32.75;;;;;;;3.37;100.00;102059.66;5021836;28;20030;-81
2022/03/16 05:31:22;;;;;;;69.55;30.38;;;;;;;3.41;100.00;102064.94;5021505;28;20036;-81
2022/03/16 05:33:48;;;;;;;68.07;30.10;;;;;;;3.46;100.00;102062.06;5010599;28;20409;-81
2022/03/16 05:36:14;;;;;;;72.57;31.60;;;;;;;3.38;100.00;102058.72;5009028;28;20046;-81
2022/03/16 05:38:39;;;;;;;60.92;28.25;;;;;;;3.45;100.00;102054.91;5021263;28;20033;-81
2022/03/16 05:41:05;;;;;;;67.43;29.17;;;;;;;3.54;100.00;102059.16;5019664;28;20033;-81
2022/03/16 05:43:31;;;;;;;63.50;27.95;;;;;;;3.47;100.00;102044.91;5027568;28;20029;-80
2022/03/16 05:45:56;;;;;;;59.38;26.88;;;;;;;3.56;100.00;102054.56;5017602;28;20034;-81
2022/03/16 05:48:21;;;;;;;66.45;27.42;;;;;;;3.49;100.00;102052.06;5033730;28;20067;-80
2022/03/16 05:50:47;;;;;;;55.00;26.45;;;;;;;3.59;100.00;102051.75;5017051;28;20033;-80
2022/03/16 05:53:14;;;;;;;57.53;26.33;;;;;;;3.55;100.00;102050.97;5021921;27;20369;-80
2022/03/16 05:55:40;;;;;;;54.50;25.60;;;;;;;3.53;100.00;102063.69;5017468;28;20038;-79
2022/03/16 05:58:05;;;;;;;60.13;26.92;;;;;;;3.62;100.00;102057.09;5018623;28;20109;-80
2022/03/16 06:00:32;;;;;;;59.03;25.00;;;;;;;3.59;100.00;102063.50;5018391;28;20098;-80
2022/03/16 06:02:58;;;;;;;61.65;27.25;;;;;;;3.59;100.00;102051.75;5023819;28;20030;-79
2022/03/16 06:05:23;;;;;;;57.53;25.63;;;;;;;3.67;100.00;102057.84;5017880;28;20022;-80
2022/03/16 06:07:49;;;;;;;51.72;26.00;;;;;;;3.65;100.00;102051.59;5002883;28;20531;-79
2022/03/16 06:10:17;;;;;;;57.75;25.25;;;;;;;3.70;100.00;102056.88;5018375;28;20034;-78
2022/03/16 06:12:56;;;;;;;55.80;23.33;;;;;;;3.68;100.00;102073.16;5022415;28;20045;-78
2022/03/16 06:15:24;;;;;;;51.97;23.15;;;;;;;3.78;100.00;102071.06;5018735;28;20135;-78
2022/03/16 06:17:50;;;;;;;54.20;23.42;;;;;;;3.81;100.00;102066.41;5027911;28;20036;-79
2022/03/16 06:20:15;;;;;;;55.30;23.48;;;;;;;3.91;100.00;102061.59;5002129;28;20026;-79
2022/03/16 06:22:41;;;;;;;46.35;22.67;;;;;;;3.89;100.00;102065.28;5022992;28;20044;-79
2022/03/16 06:25:07;;;;;;;46.13;20.63;;;;;;;3.95;100.00;102063.28;5020190;28;20037;-79
2022/03/16 06:27:32;;;;;;;49.03;21.38;;;;;;;4.09;100.00;102070.09;5022550;27;20042;-80
2022/03/16 06:29:58;;;;;;;46.70;21.25;;;;;;;4.08;100.00;102076.44;5022753;28;20041;-80
2022/03/16 06:32:23;;;;;;;111.47;40.08;;;;;;;4.12;100.00;102075.41;5016161;28;20042;-80
2022/03/16 06:34:48;;;;;;;244.02;84.18;;;;;;;4.15;100.00;102068.06;5019883;28;20568;-80
2022/03/16 06:37:14;;;;;;;130.95;52.38;;;;;;;4.09;100.00;102049.28;5018534;28;20037;-80
2022/03/16 06:39:39;;;;;;;87.30;38.75;;;;;;;4.35;100.00;102080.06;5005983;28;20025;-80
2022/03/16 06:42:05;;;;;;;71.72;28.48;;;;;;;4.46;100.00;102076.97;5023654;28;20030;-80
2022/03/16 06:44:31;;;;;;;54.05;23.52;;;;;;;4.45;100.00;102076.09;5019177;28;20037;-80
2022/03/16 06:46:56;;;;;;;65.38;28.98;;;;;;;4.45;100.00;102070.69;5040883;27;20058;-79
2022/03/16 06:49:22;;;;;;;45.90;21.08;;;;;;;4.49;100.00;102068.75;5006384;28;20046;-80
2022/03/16 06:51:48;;;;;;;45.65;20.60;;;;;;;4.39;100.00;102047.38;5106507;27;20045;-80
2022/03/16 06:54:13;;;;;;;39.50;19.85;;;;;;;4.60;100.00;102070.16;5006662;28;20737;-80
2022/03/16 06:56:38;;;;;;;45.63;20.52;;;;;;;4.66;100.00;102071.78;5015166;28;20058;-80
2022/03/16 06:59:04;;;;;;;43.53;19.20;;;;;;;4.79;100.00;102062.25;5003715;28;20451;-80
2022/03/16 07:01:29;;;;;;;48.85;19.50;;;;;;;4.98;100.00;102067.03;5031037;28;20030;-81
2022/03/16 07:03:55;;;;;;;39.67;19.67;;;;;;;5.14;100.00;102053.78;5008604;28;20535;-80
2022/03/16 07:06:20;;;;;;;39.40;19.00;;;;;;;5.44;100.00;102043.56;5031258;27;20451;-79
2022/03/16 07:08:46;;;;;;;39.65;18.48;;;;;;;5.44;100.00;102056.28;5028286;28;20519;-80
2022/03/16 07:11:12;;;;;;;42.22;19.45;;;;;;;5.51;100.00;102045.13;5015592;28;20029;-83
2022/03/16 07:13:41;;;;;;;40.25;18.25;;;;;;;5.54;100.00;102046.81;5022932;28;20113;-80
2022/03/16 07:16:07;;;;;;;36.53;17.25;;;;;;;5.68;100.00;102039.03;5024722;28;20561;-79
2022/03/16 07:18:32;;;;;;;36.53;18.10;;;;;;;5.65;100.00;102038.28;5019372;28;20058;-79
2022/03/16 07:20:58;;;;;;;39.47;18.48;;;;;;;5.72;100.00;102028.91;5009923;28;20083;-80
2022/03/16 07:23:24;;;;;;;33.85;17.50;;;;;;;5.67;100.00;102039.09;5021101;28;20037;-80
2022/03/16 07:25:50;;;;;;;38.33;16.85;;;;;;;5.80;100.00;102031.34;5022039;28;20065;-79
2022/03/16 07:28:18;;;;;;;38.97;18.65;;;;;;;5.87;100.00;102028.31;5020199;28;20030;-80
2022/03/16 07:30:44;;;;;;;34.92;16.63;;;;;;;5.99;100.00;102018.81;5021381;28;20058;-77
2022/03/16 07:33:13;;;;;;;36.53;18.00;;;;;;;6.18;100.00;102031.63;5018789;28;20053;-80
2022/03/16 07:35:39;;;;;;;42.95;16.50;;;;;;;6.34;100.00;102026.44;5035091;27;20046;-79
2022/03/16 07:38:06;;;;;;;31.35;15.88;;;;;;;6.43;100.00;102020.63;5029492;28;20040;-78
2022/03/16 07:40:35;;;;;;;34.17;17.42;;;;;;;6.67;100.00;102018.63;5019150;28;20038;-79
2022/03/16 07:43:00;;;;;;;32.70;18.08;;;;;;;6.85;100.00;102024.22;5027943;28;20095;-78
2022/03/16 07:45:27;;;;;;;36.45;17.42;;;;;;;6.83;100.00;102026.16;5025311;28;20045;-79
2022/03/16 07:47:59;;;;;;;32.05;16.27;;;;;;;7.03;100.00;102028.84;5020848;28;20051;-78
2022/03/16 07:50:26;;;;;;;30.60;16.70;;;;;;;6.93;100.00;102014.75;5021084;28;20549;-78
2022/03/16 07:52:52;;;;;;;33.72;16.92;;;;;;;7.23;100.00;102018.88;5026671;28;20026;-79
2022/03/16 07:55:18;;;;;;;29.83;16.75;;;;;;;7.25;100.00;102014.25;5033771;28;20056;-78
2022/03/16 07:57:44;;;;;;;34.47;16.38;;;;;;;7.45;100.00;102018.78;5024576;28;20495;-78
2022/03/16 08:00:11;;;;;;;32.92;15.80;;;;;;;7.64;100.00;102022.38;5020542;28;20439;-78
2022/03/16 08:02:40;;;;;;;37.58;16.75;;;;;;;7.63;100.00;102014.28;5034412;27;20341;-78
2022/03/16 08:05:07;;;;;;;31.92;16.33;;;;;;;7.74;100.00;102009.19;5020549;28;20033;-79
2022/03/16 08:07:32;;;;;;;31.70;16.08;;;;;;;7.95;100.00;102020.88;5016941;28;20061;-79
2022/03/16 08:09:59;;;;;;;28.48;13.68;;;;;;;8.08;100.00;101997.50;5021102;28;20057;-79
2022/03/16 08:12:25;;;;;;;30.40;15.52;;;;;;;8.16;100.00;102002.56;5018682;28;20030;-79
2022/03/16 08:14:51;;;;;;;31.65;15.38;;;;;;;8.23;100.00;102001.31;5022647;28;20037;-81
2022/03/16 08:17:17;;;;;;;27.48;14.35;;;;;;;8.39;100.00;102017.75;5020801;28;20461;-80
2022/03/16 08:19:43;;;;;;;43.50;16.17;;;;;;;8.16;100.00;102012.59;5013501;28;20125;-79
2022/03/16 08:22:08;;;;;;;30.23;15.57;;;;;;;8.28;100.00;102015.59;5018320;28;20406;-79
2022/03/16 08:24:34;;;;;;;33.17;15.68;;;;;;;8.55;100.00;102017.88;5025424;27;20498;-80
2022/03/16 08:26:59;;;;;;;31.05;14.85;;;;;;;8.61;100.00;102023.03;5038166;27;20102;-79
2022/03/16 08:29:25;;;;;;;28.92;14.13;;;;;;;8.28;100.00;102025.63;5038263;27;20038;-80
2022/03/16 08:31:50;;;;;;;29.92;15.73;;;;;;;8.42;100.00;102027.63;5025603;28;20034;-79
2022/03/16 08:34:18;;;;;;;25.33;14.77;;;;;;;8.60;100.00;102018.53;5008061;28;20123;-79
2022/03/16 08:36:44;;;;;;;28.63;14.48;;;;;;;8.72;100.00;102017.00;5012662;28;20552;-79
2022/03/16 08:39:09;;;;;;;29.88;15.48;;;;;;;8.85;100.00;102019.97;5017914;28;20064;-79
2022/03/16 08:41:35;;;;;;;30.20;15.65;;;;;;;9.07;100.00;102010.63;5016259;28;20065;-79
2022/03/16 08:44:02;;;;;;;30.75;15.85;;;;;;;9.18;100.00;102008.19;5018791;28;20038;-79
2022/03/16 08:46:31;;;;;;;27.45;14.77;;;;;;;9.62;100.00;102015.75;5016903;28;20351;-79
2022/03/16 08:48:56;;;;;;;31.88;15.60;;;;;;;9.47;100.00;102005.69;5012997;28;20385;-78
2022/03/16 08:51:22;;;;;;;27.58;15.40;;;;;;;10.06;100.00;102008.72;5018134;28;20099;-81
2022/03/16 08:53:49;;;;;;;25.58;15.05;;;;;;;10.07;100.00;102003.16;5020439;28;20072;-79
2022/03/16 08:56:15;;;;;;;26.25;15.90;;;;;;;10.37;100.00;102005.06;5019416;28;20030;-79
2022/03/16 08:58:41;;;;;;;29.77;15.25;;;;;;;10.64;100.00;102016.22;5019311;28;20105;-79
2022/03/16 09:01:06;;;;;;;30.73;15.52;;;;;;;10.68;100.00;102002.34;5010600;28;20095;-78
2022/03/16 09:03:32;;;;;;;28.92;16.05;;;;;;;10.46;100.00;102020.06;5018356;28;20038;-80
2022/03/16 09:05:59;;;;;;;28.45;14.98;;;;;;;10.57;100.00;102014.81;5020126;28;20492;-80
2022/03/16 09:08:24;;;;;;;29.55;16.33;;;;;;;10.75;100.00;102007.34;5013941;28;20052;-79
2022/03/16 09:10:50;;;;;;;31.13;16.45;;;;;;;10.84;100.00;102011.41;5022919;28;20629;-79
2022/03/16 09:13:17;;;;;;;28.17;15.43;;;;;;;10.64;100.00;102015.31;5013803;28;20537;-80
2022/03/16 09:15:43;;;;;;;36.50;15.63;;;;;;;10.61;100.00;102007.31;5018495;28;20041;-79
2022/03/16 09:18:09;;;;;;;33.22;15.50;;;;;;;10.74;100.00;102008.34;5020695;28;20110;-79
2022/03/16 09:20:35;;;;;;;28.73;15.68;;;;;;;10.97;100.00;102026.09;5020540;28;20030;-80
2022/03/16 09:23:01;;;;;;;28.75;14.80;;;;;;;10.92;100.00;102027.34;5029139;28;20030;-80
2022/03/16 09:25:27;;;;;;;33.35;16.55;;;;;;;11.15;100.00;102015.84;5024415;28;20534;-80
2022/03/16 09:27:53;;;;;;;27.13;16.38;;;;;;;11.34;100.00;102025.63;5025350;28;20037;-80
2022/03/16 09:30:19;;;;;;;28.00;16.10;;;;;;;11.55;100.00;102012.41;5023824;28;20038;-80
2022/03/16 09:32:45;;;;;;;24.73;14.55;;;;;;;11.54;100.00;102007.91;5011719;28;20037;-79
2022/03/16 09:35:11;;;;;;;26.38;16.23;;;;;;;11.51;100.00;102005.34;5018131;28;20052;-79
2022/03/16 09:37:36;;;;;;;26.80;15.52;;;;;;;11.32;100.00;102000.19;5019701;28;20380;-80
2022/03/16 09:40:03;;;;;;;28.77;15.30;;;;;;;11.50;100.00;102006.34;5003746;28;20061;-81
2022/03/16 09:42:30;;;;;;;25.08;14.98;;;;;;;11.29;100.00;102014.09;5021305;28;20029;-79
2022/03/16 09:45:00;;;;;;;30.65;14.90;;;;;;;11.64;100.00;102008.19;5017682;28;20034;-79
2022/03/16 09:47:27;;;;;;;30.05;15.10;;;;;;;11.70;100.00;102003.16;5024060;28;20120;-79
2022/03/16 09:49:53;;;;;;;25.77;15.30;;;;;;;12.23;99.24;101992.41;5022395;28;20041;-79
2022/03/16 09:52:19;;;;;;;23.42;15.35;;;;;;;12.21;98.51;101991.59;5004220;28;20030;-78
2022/03/16 09:54:46;;;;;;;25.42;15.07;;;;;;;12.46;95.17;101985.31;5000542;28;20075;-79
2022/03/16 09:57:12;;;;;;;21.05;12.05;;;;;;;12.10;96.10;101989.59;5008953;28;20026;-79
2022/03/16 09:59:38;;;;;;;29.92;14.02;;;;;;;12.32;97.01;101994.50;5010452;28;20042;-79
2022/03/16 10:02:06;;;;;;;25.05;14.07;;;;;;;12.14;97.04;101999.38;5055224;27;20048;-79
2022/03/16 10:04:34;;;;;;;27.42;15.52;;;;;;;12.40;95.93;102004.09;5019537;28;20030;-78
2022/03/16 10:07:00;;;;;;;23.85;13.55;;;;;;;12.15;97.34;101992.03;5015810;28;20150;-79
2022/03/16 10:15:10;;;;;;;21.83;14.25;;;;;;;12.60;96.04;101976.09;5027831;28;20548;-79
2022/03/16 10:17:45;;;;;;;25.50;15.43;;;;;;;13.10;94.93;101980.88;5029406;28;20350;-78
2022/03/16 10:20:26;;;;;;;29.13;14.57;;;;;;;13.28;91.71;101981.41;5022931;28;20037;-79
2022/03/16 10:23:00;;;;;;;25.15;15.18;;;;;;;12.76;94.02;101980.53;5014640;28;20042;-78
2022/03/16 10:25:28;;;;;;;21.52;13.55;;;;;;;12.90;93.84;101972.19;5024120;28;20029;-80
2022/03/16 10:28:13;;;;;;;22.02;13.35;;;;;;;12.99;93.09;101957.78;5042825;28;20097;-80
2022/03/16 10:30:48;;;;;;;24.00;14.48;;;;;;;12.88;93.97;101969.53;5021079;27;20100;-78
2022/03/16 10:33:16;;;;;;;27.38;14.52;;;;;;;12.94;94.03;101978.38;5023672;28;20030;-78
2022/03/16 10:35:55;;;;;;;31.63;14.20;;;;;;;12.99;92.94;101988.03;5013056;28;20155;-78
2022/03/16 10:38:22;;;;;;;22.15;13.93;;;;;;;12.77;94.80;101985.03;5009790;28;20125;-78
2022/03/16 10:40:49;;;;;;;22.73;13.40;;;;;;;13.42;93.79;101976.69;5023731;28;20469;-78
2022/03/16 10:49:09;;;;;;;20.80;11.75;;;;;;;12.91;93.32;101962.09;5021576;28;20042;-79
2022/03/16 10:51:36;;;;;;;19.20;12.07;;;;;;;13.27;92.94;101969.53;5017338;28;20424;-78
2022/03/16 10:54:04;;;;;;;34.28;14.77;;;;;;;13.02;94.50;101970.44;5001659;28;20056;-78
2022/03/16 10:56:31;;;;;;;21.25;13.55;;;;;;;13.22;94.05;101966.25;5023933;28;20037;-79
2022/03/16 10:58:57;;;;;;;21.73;12.75;;;;;;;13.20;94.01;101971.88;5027870;28;20075;-79
2022/03/16 11:01:25;;;;;;;16.02;10.40;;;;;;;13.14;92.60;101963.19;5018186;28;20030;-79
2022/03/16 11:03:52;;;;;;;18.15;11.48;;;;;;;13.21;92.08;101943.34;5018213;28;20033;-79
2022/03/16 11:06:21;;;;;;;19.50;12.10;;;;;;;13.15;94.46;101963.06;5016813;28;20037;-78
2022/03/16 11:08:47;;;;;;;19.15;11.82;;;;;;;13.27;93.72;101964.03;5018184;28;20037;-78
2022/03/16 11:13:58;;;;;;;21.83;12.68;;;;;;;13.10;94.54;101942.38;5015632;28;20068;-79
2022/03/16 11:16:25;;;;;;;17.45;11.70;;;;;;;13.28;93.10;101963.06;4997547;28;20533;-78
2022/03/16 11:18:51;;;;;;;22.38;12.00;;;;;;;13.63;92.79;101959.59;5015330;28;20146;-79